createdAt,value
2019-01-21T00:00:23.417Z,-4.20
2019-01-21T00:02:57.759Z,-4.30
2019-01-21T00:05:31.469Z,-4.40
2019-01-21T00:08:05.985Z,-4.30
2019-01-21T00:10:39.711Z,-4.30
2019-01-21T00:13:13.304Z,-4.40
2019-01-21T00:15:47.271Z,-4.40
2019-01-21T00:18:20.949Z,-4.40
2019-01-21T00:20:54.754Z,-4.50
2019-01-21T00:23:29.238Z,-4.60
2019-01-21T00:26:02.917Z,-4.60
2019-01-21T00:28:36.681Z,-4.60
2019-01-21T00:31:10.643Z,-4.40
2019-01-21T00:33:44.283Z,-4.50
2019-01-21T00:36:18.077Z,-4.50
2019-01-21T00:38:51.809Z,-4.50
2019-01-21T00:41:26.304Z,-4.60
2019-01-21T00:44:01.023Z,-4.60
2019-01-21T00:46:34.762Z,-4.60
2019-01-21T00:49:09.357Z,-4.80
2019-01-21T00:51:43.080Z,-4.80
2019-01-21T00:54:17.797Z,-4.90
2019-01-21T00:56:51.608Z,-4.90
2019-01-21T00:59:25.481Z,-4.90
2019-01-21T01:02:00.016Z,-4.90
2019-01-21T01:04:33.772Z,-4.90
2019-01-21T01:07:07.530Z,-4.90
2019-01-21T01:09:41.256Z,-4.90
2019-01-21T01:12:14.994Z,-4.80
2019-01-21T01:14:48.766Z,-4.80
2019-01-21T01:17:22.492Z,-4.80
2019-01-21T01:19:57.097Z,-4.90
2019-01-21T01:22:31.608Z,-4.90
2019-01-21T01:25:05.422Z,-4.90
2019-01-21T01:27:39.338Z,-4.90
2019-01-21T01:30:12.997Z,-4.80
2019-01-21T01:32:47.641Z,-4.70
2019-01-21T01:35:21.354Z,-4.80
2019-01-21T01:37:55.075Z,-4.70
2019-01-21T01:40:28.918Z,-4.70
2019-01-21T01:43:03.477Z,-4.70
2019-01-21T01:45:37.280Z,-4.70
2019-01-21T01:48:10.972Z,-4.60
2019-01-21T01:50:44.705Z,-4.70
2019-01-21T01:53:18.398Z,-4.50
2019-01-21T01:55:52.268Z,-4.50
2019-01-21T01:58:26.725Z,-4.70
2019-01-21T02:01:00.429Z,-4.70
2019-01-21T02:03:34.188Z,-4.70
2019-01-21T02:06:08.133Z,-4.80
2019-01-21T02:08:42.766Z,-4.90
2019-01-21T02:11:16.425Z,-4.90
2019-01-21T02:13:50.201Z,-4.90
2019-01-21T02:16:24.129Z,-4.90
2019-01-21T02:18:57.840Z,-5.00
2019-01-21T02:21:31.588Z,-4.90
2019-01-21T02:24:05.457Z,-4.70
2019-01-21T02:26:39.245Z,-4.70
2019-01-21T02:29:13.148Z,-4.70
2019-01-21T02:31:54.268Z,-4.80
2019-01-21T02:34:32.705Z,-5.00
2019-01-21T02:37:23.962Z,-5.00
2019-01-21T02:40:04.991Z,-5.00
2019-01-21T02:42:42.088Z,-5.10
2019-01-21T02:45:24.374Z,-5.10
2019-01-21T02:48:04.227Z,-5.10
2019-01-21T02:50:51.012Z,-5.10
2019-01-21T02:53:33.889Z,-5.20
2019-01-21T02:56:13.286Z,-5.10
2019-01-21T02:59:05.262Z,-4.90
2019-01-21T03:01:50.694Z,-5.00
2019-01-21T03:07:45.757Z,-5.00
2019-01-21T03:10:30.600Z,-4.90
2019-01-21T03:16:19.201Z,-4.80
2019-01-21T03:27:57.977Z,-4.20
2019-01-21T03:30:39.272Z,-4.20
2019-01-21T03:33:36.545Z,-4.10
2019-01-21T03:39:50.708Z,-4.30
2019-01-21T03:45:56.308Z,-4.70
2019-01-21T03:48:30.741Z,-5.10
2019-01-21T03:54:14.577Z,-4.90
2019-01-21T03:56:48.283Z,-4.70
2019-01-21T03:59:36.174Z,-4.90
2019-01-21T04:02:18.804Z,-4.80
2019-01-21T04:05:05.041Z,-4.80
2019-01-21T04:07:45.015Z,-4.70
2019-01-21T04:16:36.240Z,-5.10
2019-01-21T04:19:23.168Z,-5.20
2019-01-21T04:25:00.211Z,-5.00
2019-01-21T04:30:59.840Z,-5.00
2019-01-21T04:33:56.131Z,-5.20
2019-01-21T04:36:41.085Z,-5.00
2019-01-21T04:39:24.442Z,-4.80
2019-01-21T04:42:14.743Z,-4.70
2019-01-21T04:45:01.261Z,-4.80
2019-01-21T04:51:10.304Z,-4.80
2019-01-21T04:57:04.332Z,-5.10
2019-01-21T05:02:40.563Z,-5.10
2019-01-21T05:05:28.647Z,-5.00
2019-01-21T05:08:13.712Z,-4.80
2019-01-21T05:14:10.172Z,-4.90
2019-01-21T05:16:48.343Z,-5.00
2019-01-21T05:19:28.644Z,-5.00
2019-01-21T05:28:21.248Z,-5.40
2019-01-21T05:34:06.727Z,-5.20
2019-01-21T05:37:05.977Z,-5.20
2019-01-21T05:39:44.209Z,-5.40
2019-01-21T05:42:22.230Z,-5.40
2019-01-21T05:48:23.121Z,-5.60
2019-01-21T05:54:27.576Z,-5.70
2019-01-21T05:57:01.919Z,-5.70
2019-01-21T05:59:44.765Z,-5.60
2019-01-21T06:02:41.029Z,-5.70
2019-01-21T06:05:37.140Z,-5.70
2019-01-21T06:08:20.180Z,-5.80
2019-01-21T06:11:27.044Z,-5.90
2019-01-21T06:14:06.671Z,-5.90
2019-01-21T06:16:42.342Z,-5.90
2019-01-21T06:31:44.192Z,-6.20
2019-01-21T06:37:37.613Z,-6.20
2019-01-21T06:40:27.776Z,-6.10
2019-01-21T06:43:08.815Z,-6.00
2019-01-21T06:52:40.592Z,-5.90
2019-01-21T06:55:38.805Z,-5.70
2019-01-21T16:40:43.112Z,-4.20
2019-01-21T16:43:16.849Z,-4.30
2019-01-21T16:45:50.681Z,-4.00
2019-01-21T16:48:25.168Z,-3.30
2019-01-21T16:50:58.888Z,-3.30
2019-01-21T16:53:32.742Z,-3.10
2019-01-21T16:56:07.284Z,-2.80
2019-01-21T16:58:41.053Z,-2.80
2019-01-21T17:01:14.881Z,-2.70
2019-01-21T17:03:48.540Z,-2.60
2019-01-21T17:06:22.422Z,-2.60
2019-01-21T17:08:56.299Z,-2.60
2019-01-21T17:11:30.220Z,-2.50
2019-01-21T17:14:03.811Z,-2.50
2019-01-21T17:16:37.712Z,-2.50
2019-01-21T17:19:11.578Z,-2.50
2019-01-21T17:21:45.345Z,-2.50
2019-01-21T17:24:19.059Z,-2.50
2019-01-21T17:26:52.846Z,-2.50
2019-01-21T17:29:27.381Z,-2.50
2019-01-21T17:32:01.142Z,-2.50
2019-01-21T17:34:35.813Z,-2.50
2019-01-21T17:37:09.624Z,-2.60
2019-01-21T17:39:43.308Z,-2.60
2019-01-21T17:42:17.198Z,-2.60
2019-01-21T17:44:50.837Z,-2.60
2019-01-21T17:47:24.569Z,-2.70
2019-01-21T17:49:58.398Z,-2.70
2019-01-21T17:52:32.244Z,-2.60
2019-01-21T17:55:06.737Z,-2.70
2019-01-21T17:57:40.488Z,-2.70
2019-01-21T18:00:14.052Z,-2.70
2019-01-21T18:02:47.857Z,-2.80
2019-01-21T18:05:21.674Z,-2.80
2019-01-21T18:07:55.446Z,-2.80
2019-01-21T18:10:29.213Z,-2.80
2019-01-21T18:13:03.770Z,-2.90
2019-01-21T18:15:37.473Z,-2.90
2019-01-21T18:18:11.322Z,-2.90
2019-01-21T18:20:45.046Z,-2.90
2019-01-21T18:23:19.676Z,-2.90
2019-01-21T18:25:53.388Z,-2.90
2019-01-21T18:28:27.137Z,-2.90
2019-01-21T18:31:00.965Z,-3.00
2019-01-21T18:33:34.700Z,-2.90
2019-01-21T18:36:08.372Z,-3.00
2019-01-21T18:38:42.121Z,-3.00
2019-01-21T18:41:15.854Z,-3.10
2019-01-21T18:43:49.681Z,-3.10
2019-01-21T18:46:23.497Z,-3.00
2019-01-21T18:48:57.229Z,-3.00
2019-01-21T18:51:31.135Z,-3.10
2019-01-21T18:54:04.875Z,-3.10
2019-01-21T18:56:38.596Z,-3.10
2019-01-21T18:59:12.298Z,-3.20
2019-01-21T19:01:46.045Z,-3.20
2019-01-21T19:04:19.906Z,-3.30
2019-01-21T19:06:53.772Z,-3.20
2019-01-21T19:09:28.089Z,-3.30
2019-01-21T19:12:01.796Z,-3.30
2019-01-21T19:14:35.529Z,-3.30
2019-01-21T19:17:09.413Z,-3.30
2019-01-21T19:19:43.129Z,-3.30
2019-01-21T19:22:16.713Z,-3.30
2019-01-21T19:24:50.403Z,-3.40
2019-01-21T19:27:24.279Z,-3.50
2019-01-21T19:29:58.768Z,-3.50
2019-01-21T19:32:32.472Z,-3.50
2019-01-21T19:35:07.990Z,-3.50
2019-01-21T19:37:41.706Z,-3.50
2019-01-21T19:40:15.288Z,-3.50
2019-01-21T19:42:49.029Z,-3.50
2019-01-21T19:45:22.921Z,-3.50
2019-01-21T19:47:56.641Z,-3.60
2019-01-21T19:50:30.512Z,-3.60
2019-01-21T19:53:04.148Z,-3.70
2019-01-21T19:55:37.948Z,-3.60
2019-01-21T19:58:11.655Z,-3.60
2019-01-21T20:00:45.448Z,-3.70
2019-01-21T20:03:19.253Z,-3.70
2019-01-21T20:05:53.744Z,-3.80
2019-01-21T20:08:28.260Z,-3.90
2019-01-21T20:11:02.809Z,-3.90
2019-01-21T20:13:36.452Z,-3.90
2019-01-21T20:16:10.131Z,-4.10
2019-01-21T20:18:43.844Z,-4.10
2019-01-21T20:21:17.525Z,-4.10
2019-01-21T20:23:51.428Z,-4.10
2019-01-21T20:26:25.161Z,-4.00
2019-01-21T20:28:59.571Z,-3.90
2019-01-21T20:31:34.198Z,-4.00
2019-01-21T20:34:07.884Z,-4.00
2019-01-21T20:36:41.652Z,-3.90
2019-01-21T20:39:15.565Z,-3.90
2019-01-21T20:41:50.046Z,-3.90
2019-01-21T20:44:23.767Z,-4.00
2019-01-21T20:46:57.525Z,-4.00
2019-01-21T20:49:31.245Z,-3.90
2019-01-21T20:52:04.940Z,-3.90
2019-01-21T20:54:38.784Z,-3.90
2019-01-21T20:57:13.497Z,-4.00
2019-01-21T20:59:47.310Z,-4.10
2019-01-21T21:02:21.021Z,-4.10
2019-01-21T21:04:54.992Z,-4.00
2019-01-21T21:07:28.740Z,-4.00
2019-01-21T21:10:02.531Z,-4.10
2019-01-21T21:12:36.243Z,-4.10
2019-01-21T21:15:12.333Z,-4.10
2019-01-21T21:17:45.985Z,-4.10
2019-01-21T21:20:20.617Z,-4.20
2019-01-21T21:22:55.153Z,-4.30
2019-01-21T21:25:35.187Z,-4.30
2019-01-21T21:28:09.028Z,-4.20
2019-01-21T21:30:42.729Z,-4.30
2019-01-21T21:33:16.879Z,-4.20
2019-01-21T21:35:50.729Z,-4.30
2019-01-21T21:38:24.815Z,-4.30
2019-01-21T21:40:58.660Z,-4.30
2019-01-21T21:43:33.180Z,-4.40
2019-01-21T21:46:06.980Z,-4.40
2019-01-21T21:48:41.656Z,-4.40
2019-01-21T21:51:15.265Z,-4.40
2019-01-21T21:53:49.223Z,-4.40
2019-01-21T21:56:23.037Z,-4.40
2019-01-21T21:58:57.595Z,-4.70
2019-01-21T22:01:32.487Z,-4.80
2019-01-21T22:04:07.101Z,-4.70
2019-01-21T22:06:40.825Z,-4.70
2019-01-21T22:09:14.820Z,-4.60
2019-01-21T22:11:48.423Z,-4.50
2019-01-21T22:14:22.341Z,-4.50
2019-01-21T22:16:56.064Z,-4.50
2019-01-21T22:19:29.900Z,-4.50
2019-01-21T22:22:03.815Z,-4.60
2019-01-21T22:24:37.660Z,-4.60
2019-01-21T22:27:12.296Z,-4.60
2019-01-21T22:29:46.841Z,-4.70
2019-01-21T22:32:20.516Z,-4.70
2019-01-21T22:34:55.131Z,-4.70
2019-01-21T22:37:28.813Z,-4.80
2019-01-21T22:40:02.554Z,-4.70
2019-01-21T22:42:36.253Z,-4.80
2019-01-21T22:45:09.992Z,-4.80
2019-01-21T22:47:43.829Z,-4.80
2019-01-21T22:50:17.474Z,-4.70
2019-01-21T22:52:51.269Z,-4.70
2019-01-21T22:55:24.953Z,-4.80
2019-01-21T22:57:59.656Z,-4.90
2019-01-21T23:00:39.582Z,-4.90
2019-01-21T23:03:13.185Z,-4.90
2019-01-21T23:05:46.894Z,-4.90
2019-01-21T23:08:20.741Z,-4.80
2019-01-21T23:10:54.515Z,-4.80
2019-01-21T23:13:29.156Z,-4.80
2019-01-21T23:16:03.054Z,-4.90
2019-01-21T23:18:36.909Z,-4.90
2019-01-21T23:21:10.664Z,-4.90
2019-01-21T23:23:44.565Z,-5.00
2019-01-21T23:26:18.432Z,-5.00
2019-01-21T23:28:52.144Z,-5.00
2019-01-21T23:31:26.789Z,-5.00
2019-01-21T23:34:00.489Z,-5.00
2019-01-21T23:36:34.269Z,-5.10
2019-01-21T23:39:07.974Z,-5.00
2019-01-21T23:41:41.680Z,-5.00
2019-01-21T23:44:15.473Z,-5.10
2019-01-21T23:46:50.085Z,-5.10
2019-01-21T23:49:23.860Z,-5.10
2019-01-21T23:51:57.825Z,-5.10
2019-01-21T23:54:31.457Z,-5.20
2019-01-21T23:57:05.341Z,-5.10
2019-01-21T23:59:39.057Z,-5.00
